sensor_id;sensor_type;location;lat;lon;timestamp;pressure;altitude;pressure_sealevel;temperature
67829;BMP280;54626;45.436;10.942;2023-07-29T00:01:23;100390.00;;;22.80
67829;BMP280;54626;45.436;10.942;2023-07-29T00:03:50;100388.44;;;22.77
67829;BMP280;54626;45.436;10.942;2023-07-29T00:06:17;100394.78;;;22.77
67829;BMP280;54626;45.436;10.942;2023-07-29T00:08:44;100391.03;;;22.73
67829;BMP280;54626;45.436;10.942;2023-07-29T00:11:10;100387.00;;;22.76
67829;BMP280;54626;45.436;10.942;2023-07-29T00:13:37;100387.50;;;22.73
67829;BMP280;54626;45.436;10.942;2023-07-29T00:16:04;100366.94;;;22.70
67829;BMP280;54626;45.436;10.942;2023-07-29T00:18:32;100378.22;;;22.70
67829;BMP280;54626;45.436;10.942;2023-07-29T00:20:59;100365.88;;;22.64
67829;BMP280;54626;45.436;10.942;2023-07-29T00:23:27;100362.59;;;22.54
67829;BMP280;54626;45.436;10.942;2023-07-29T00:25:54;100360.50;;;22.54
67829;BMP280;54626;45.436;10.942;2023-07-29T00:28:21;100364.88;;;22.57
67829;BMP280;54626;45.436;10.942;2023-07-29T00:30:49;100366.16;;;22.54
67829;BMP280;54626;45.436;10.942;2023-07-29T00:33:15;100365.59;;;22.58
67829;BMP280;54626;45.436;10.942;2023-07-29T00:35:42;100366.88;;;22.55
67829;BMP280;54626;45.436;10.942;2023-07-29T00:38:09;100363.41;;;22.56
67829;BMP280;54626;45.436;10.942;2023-07-29T00:40:36;100366.34;;;22.58
67829;BMP280;54626;45.436;10.942;2023-07-29T00:43:03;100358.28;;;22.53
67829;BMP280;54626;45.436;10.942;2023-07-29T00:45:31;100358.34;;;22.39
67829;BMP280;54626;45.436;10.942;2023-07-29T00:47:59;100353.31;;;22.38
67829;BMP280;54626;45.436;10.942;2023-07-29T00:50:27;100358.66;;;22.32
67829;BMP280;54626;45.436;10.942;2023-07-29T00:52:54;100364.91;;;22.17
67829;BMP280;54626;45.436;10.942;2023-07-29T00:55:24;100367.03;;;22.17
67829;BMP280;54626;45.436;10.942;2023-07-29T00:57:51;100364.28;;;22.19
67829;BMP280;54626;45.436;10.942;2023-07-29T01:00:21;100361.47;;;22.19
67829;BMP280;54626;45.436;10.942;2023-07-29T01:02:48;100365.56;;;22.16
67829;BMP280;54626;45.436;10.942;2023-07-29T01:05:16;100364.72;;;22.13
67829;BMP280;54626;45.436;10.942;2023-07-29T01:07:56;100363.47;;;22.03
67829;BMP280;54626;45.436;10.942;2023-07-29T01:13:43;100380.66;;;21.82
67829;BMP280;54626;45.436;10.942;2023-07-29T01:16:20;100381.47;;;21.84
67829;BMP280;54626;45.436;10.942;2023-07-29T01:18:47;100374.63;;;21.87
67829;BMP280;54626;45.436;10.942;2023-07-29T01:21:17;100378.38;;;21.92
67829;BMP280;54626;45.436;10.942;2023-07-29T01:23:44;100375.03;;;21.95
67829;BMP280;54626;45.436;10.942;2023-07-29T01:26:11;100378.50;;;21.94
67829;BMP280;54626;45.436;10.942;2023-07-29T01:28:38;100379.31;;;21.96
67829;BMP280;54626;45.436;10.942;2023-07-29T01:31:36;100379.00;;;21.90
67829;BMP280;54626;45.436;10.942;2023-07-29T01:34:23;100386.81;;;21.92
67829;BMP280;54626;45.436;10.942;2023-07-29T01:36:54;100386.81;;;21.92
67829;BMP280;54626;45.436;10.942;2023-07-29T01:39:23;100396.00;;;21.92
67829;BMP280;54626;45.436;10.942;2023-07-29T01:41:51;100391.00;;;21.91
67829;BMP280;54626;45.436;10.942;2023-07-29T01:44:18;100399.47;;;21.91
67829;BMP280;54626;45.436;10.942;2023-07-29T01:46:46;100391.72;;;21.91
67829;BMP280;54626;45.436;10.942;2023-07-29T01:49:14;100382.56;;;21.91
67829;BMP280;54626;45.436;10.942;2023-07-29T01:51:44;100381.47;;;21.84
67829;BMP280;54626;45.436;10.942;2023-07-29T01:54:10;100380.78;;;21.84
67829;BMP280;54626;45.436;10.942;2023-07-29T01:56:37;100375.16;;;21.84
67829;BMP280;54626;45.436;10.942;2023-07-29T01:59:04;100384.28;;;21.84
67829;BMP280;54626;45.436;10.942;2023-07-29T02:01:31;100372.50;;;21.74
67829;BMP280;54626;45.436;10.942;2023-07-29T02:04:00;100377.00;;;21.79
67829;BMP280;54626;45.436;10.942;2023-07-29T02:06:26;100378.25;;;21.76
67829;BMP280;54626;45.436;10.942;2023-07-29T02:09:02;100379.59;;;21.75
67829;BMP280;54626;45.436;10.942;2023-07-29T02:11:38;100377.53;;;21.76
67829;BMP280;54626;45.436;10.942;2023-07-29T02:14:04;100374.72;;;21.76
67829;BMP280;54626;45.436;10.942;2023-07-29T02:16:31;100366.16;;;21.74
67829;BMP280;54626;45.436;10.942;2023-07-29T02:18:59;100366.06;;;21.72
67829;BMP280;54626;45.436;10.942;2023-07-29T02:21:28;100366.06;;;21.72
67829;BMP280;54626;45.436;10.942;2023-07-29T02:23:54;100375.31;;;21.74
67829;BMP280;54626;45.436;10.942;2023-07-29T02:26:22;100378.88;;;21.75
67829;BMP280;54626;45.436;10.942;2023-07-29T02:28:48;100369.25;;;21.67
67829;BMP280;54626;45.436;10.942;2023-07-29T02:31:19;100367.69;;;21.64
67829;BMP280;54626;45.436;10.942;2023-07-29T02:33:49;100367.78;;;21.52
67829;BMP280;54626;45.436;10.942;2023-07-29T02:36:41;100373.69;;;21.45
67829;BMP280;54626;45.436;10.942;2023-07-29T02:39:09;100368.25;;;21.35
67829;BMP280;54626;45.436;10.942;2023-07-29T02:41:35;100364.81;;;21.37
67829;BMP280;54626;45.436;10.942;2023-07-29T02:44:05;100375.91;;;21.21
67829;BMP280;54626;45.436;10.942;2023-07-29T02:46:31;100377.06;;;21.05
67829;BMP280;54626;45.436;10.942;2023-07-29T02:48:58;100381.47;;;21.08
67829;BMP280;54626;45.436;10.942;2023-07-29T02:51:25;100384.41;;;21.10
67829;BMP280;54626;45.436;10.942;2023-07-29T02:53:51;100381.19;;;21.15
67829;BMP280;54626;45.436;10.942;2023-07-29T02:56:18;100383.50;;;21.19
67829;BMP280;54626;45.436;10.942;2023-07-29T02:58:45;100377.75;;;21.17
67829;BMP280;54626;45.436;10.942;2023-07-29T03:01:12;100384.94;;;21.20
67829;BMP280;54626;45.436;10.942;2023-07-29T03:03:39;100388.41;;;21.18
67829;BMP280;54626;45.436;10.942;2023-07-29T03:06:08;100385.31;;;21.26
67829;BMP280;54626;45.436;10.942;2023-07-29T03:08:35;100378.31;;;21.27
67829;BMP280;54626;45.436;10.942;2023-07-29T03:11:12;100372.25;;;21.19
67829;BMP280;54626;45.436;10.942;2023-07-29T03:13:39;100379.31;;;21.20
67829;BMP280;54626;45.436;10.942;2023-07-29T03:16:10;100389.22;;;21.21
67829;BMP280;54626;45.436;10.942;2023-07-29T03:18:37;100392.81;;;21.21
67829;BMP280;54626;45.436;10.942;2023-07-29T03:21:05;100396.56;;;21.26
67829;BMP280;54626;45.436;10.942;2023-07-29T03:23:32;100394.06;;;21.32
67829;BMP280;54626;45.436;10.942;2023-07-29T03:26:00;100399.69;;;21.32
67829;BMP280;54626;45.436;10.942;2023-07-29T03:28:28;100392.72;;;21.33
67829;BMP280;54626;45.436;10.942;2023-07-29T03:30:56;100398.56;;;21.37
67829;BMP280;54626;45.436;10.942;2023-07-29T03:33:24;100404.31;;;21.39
67829;BMP280;54626;45.436;10.942;2023-07-29T03:35:52;100391.59;;;21.38
67829;BMP280;54626;45.436;10.942;2023-07-29T03:38:19;100398.19;;;21.42
67829;BMP280;54626;45.436;10.942;2023-07-29T03:40:45;100396.31;;;21.47
67829;BMP280;54626;45.436;10.942;2023-07-29T03:43:12;100392.91;;;21.48
67829;BMP280;54626;45.436;10.942;2023-07-29T03:45:40;100388.72;;;21.49
67829;BMP280;54626;45.436;10.942;2023-07-29T03:52:00;100383.47;;;21.44
67829;BMP280;54626;45.436;10.942;2023-07-29T03:54:26;100394.25;;;21.47
67829;BMP280;54626;45.436;10.942;2023-07-29T03:56:53;100392.69;;;21.44
67829;BMP280;54626;45.436;10.942;2023-07-29T03:59:19;100406.63;;;21.42
67829;BMP280;54626;45.436;10.942;2023-07-29T04:01:49;100399.78;;;21.45
67829;BMP280;54626;45.436;10.942;2023-07-29T04:04:15;100403.72;;;21.40
67829;BMP280;54626;45.436;10.942;2023-07-29T04:06:42;100395.13;;;21.38
67829;BMP280;54626;45.436;10.942;2023-07-29T04:09:09;100403.81;;;21.42
67829;BMP280;54626;45.436;10.942;2023-07-29T04:11:35;100410.16;;;21.43
67829;BMP280;54626;45.436;10.942;2023-07-29T04:14:02;100415.41;;;21.48
67829;BMP280;54626;45.436;10.942;2023-07-29T04:16:33;100422.97;;;21.57
67829;BMP280;54626;45.436;10.942;2023-07-29T04:19:11;100426.53;;;21.71
67829;BMP280;54626;45.436;10.942;2023-07-29T04:21:44;100432.72;;;21.81
67829;BMP280;54626;45.436;10.942;2023-07-29T04:24:12;100424.81;;;21.91
67829;BMP280;54626;45.436;10.942;2023-07-29T04:27:04;100427.41;;;22.00
67829;BMP280;54626;45.436;10.942;2023-07-29T04:29:31;100425.84;;;21.97
67829;BMP280;54626;45.436;10.942;2023-07-29T04:35:15;100426.47;;;21.96
67829;BMP280;54626;45.436;10.942;2023-07-29T04:37:44;100430.44;;;21.91
67829;BMP280;54626;45.436;10.942;2023-07-29T04:40:11;100430.94;;;21.87
67829;BMP280;54626;45.436;10.942;2023-07-29T04:42:38;100437.13;;;21.84
67829;BMP280;54626;45.436;10.942;2023-07-29T04:45:05;100428.66;;;21.84
67829;BMP280;54626;45.436;10.942;2023-07-29T04:47:31;100428.34;;;21.91
67829;BMP280;54626;45.436;10.942;2023-07-29T04:49:58;100421.19;;;22.02
67829;BMP280;54626;45.436;10.942;2023-07-29T04:52:25;100423.78;;;22.11
67829;BMP280;54626;45.436;10.942;2023-07-29T04:54:52;100421.16;;;22.15
67829;BMP280;54626;45.436;10.942;2023-07-29T04:57:19;100433.59;;;22.23
67829;BMP280;54626;45.436;10.942;2023-07-29T04:59:45;100429.44;;;22.24
67829;BMP280;54626;45.436;10.942;2023-07-29T05:02:11;100436.13;;;22.18
67829;BMP280;54626;45.436;10.942;2023-07-29T05:04:38;100437.34;;;22.15
67829;BMP280;54626;45.436;10.942;2023-07-29T05:07:05;100435.06;;;22.24
67829;BMP280;54626;45.436;10.942;2023-07-29T05:09:31;100432.69;;;22.32
67829;BMP280;54626;45.436;10.942;2023-07-29T05:11:58;100437.28;;;22.39
67829;BMP280;54626;45.436;10.942;2023-07-29T05:14:54;100440.81;;;22.40
67829;BMP280;54626;45.436;10.942;2023-07-29T05:17:21;100450.41;;;22.48
67829;BMP280;54626;45.436;10.942;2023-07-29T05:19:48;100445.94;;;22.43
67829;BMP280;54626;45.436;10.942;2023-07-29T05:22:14;100448.44;;;22.51
67829;BMP280;54626;45.436;10.942;2023-07-29T05:24:46;100447.91;;;22.54
67829;BMP280;54626;45.436;10.942;2023-07-29T05:27:13;100450.41;;;22.62
67829;BMP280;54626;45.436;10.942;2023-07-29T05:29:58;100464.81;;;22.68
67829;BMP280;54626;45.436;10.942;2023-07-29T05:32:24;100461.13;;;22.78
67829;BMP280;54626;45.436;10.942;2023-07-29T05:34:51;100467.59;;;22.81
67829;BMP280;54626;45.436;10.942;2023-07-29T05:37:23;100463.22;;;22.78
67829;BMP280;54626;45.436;10.942;2023-07-29T05:40:32;100462.81;;;22.83
67829;BMP280;54626;45.436;10.942;2023-07-29T05:43:11;100461.63;;;22.88
67829;BMP280;54626;45.436;10.942;2023-07-29T05:45:37;100464.59;;;22.90
67829;BMP280;54626;45.436;10.942;2023-07-29T05:51:28;100460.34;;;23.18
67829;BMP280;54626;45.436;10.942;2023-07-29T05:53:55;100455.16;;;23.28
67829;BMP280;54626;45.436;10.942;2023-07-29T05:56:31;100456.56;;;23.42
67829;BMP280;54626;45.436;10.942;2023-07-29T05:59:00;100452.13;;;23.53
67829;BMP280;54626;45.436;10.942;2023-07-29T06:10:55;100440.69;;;24.10
67829;BMP280;54626;45.436;10.942;2023-07-29T06:13:21;100437.44;;;24.18
67829;BMP280;54626;45.436;10.942;2023-07-29T06:15:48;100447.81;;;24.29
67829;BMP280;54626;45.436;10.942;2023-07-29T06:18:14;100461.28;;;24.45
67829;BMP280;54626;45.436;10.942;2023-07-29T06:20:41;100456.16;;;24.57
67829;BMP280;54626;45.436;10.942;2023-07-29T06:23:08;100461.00;;;24.55
67829;BMP280;54626;45.436;10.942;2023-07-29T06:25:35;100468.72;;;24.70
67829;BMP280;54626;45.436;10.942;2023-07-29T06:28:02;100467.97;;;24.85
67829;BMP280;54626;45.436;10.942;2023-07-29T06:30:29;100469.41;;;25.03
67829;BMP280;54626;45.436;10.942;2023-07-29T06:32:55;100472.03;;;25.14
67829;BMP280;54626;45.436;10.942;2023-07-29T06:35:22;100480.66;;;25.36
67829;BMP280;54626;45.436;10.942;2023-07-29T06:37:56;100490.59;;;25.54
67829;BMP280;54626;45.436;10.942;2023-07-29T06:40:34;100479.19;;;25.88
67829;BMP280;54626;45.436;10.942;2023-07-29T06:43:03;100479.78;;;26.04
67829;BMP280;54626;45.436;10.942;2023-07-29T06:45:29;100473.72;;;26.33
67829;BMP280;54626;45.436;10.942;2023-07-29T06:48:12;100479.38;;;26.74
67829;BMP280;54626;45.436;10.942;2023-07-29T06:51:06;100488.31;;;26.64
67829;BMP280;54626;45.436;10.942;2023-07-29T06:53:34;100497.53;;;26.65
67829;BMP280;54626;45.436;10.942;2023-07-29T06:56:07;100491.78;;;26.82
67829;BMP280;54626;45.436;10.942;2023-07-29T06:58:34;100484.47;;;26.56
67829;BMP280;54626;45.436;10.942;2023-07-29T07:01:01;100486.38;;;26.49
67829;BMP280;54626;45.436;10.942;2023-07-29T07:03:29;100484.44;;;26.35
67829;BMP280;54626;45.436;10.942;2023-07-29T07:05:56;100496.28;;;26.29
67829;BMP280;54626;45.436;10.942;2023-07-29T07:08:23;100490.81;;;26.35
67829;BMP280;54626;45.436;10.942;2023-07-29T07:10:50;100499.56;;;26.22
67829;BMP280;54626;45.436;10.942;2023-07-29T07:13:19;100488.53;;;26.30
67829;BMP280;54626;45.436;10.942;2023-07-29T07:15:49;100487.13;;;26.71
67829;BMP280;54626;45.436;10.942;2023-07-29T07:18:15;100484.53;;;26.58
67829;BMP280;54626;45.436;10.942;2023-07-29T07:20:51;100474.19;;;26.66
67829;BMP280;54626;45.436;10.942;2023-07-29T07:23:18;100471.38;;;26.47
67829;BMP280;54626;45.436;10.942;2023-07-29T07:25:45;100472.97;;;26.52
67829;BMP280;54626;45.436;10.942;2023-07-29T07:28:11;100475.09;;;26.51
67829;BMP280;54626;45.436;10.942;2023-07-29T07:30:41;100475.66;;;26.67
67829;BMP280;54626;45.436;10.942;2023-07-29T07:33:13;100471.59;;;26.95
67829;BMP280;54626;45.436;10.942;2023-07-29T07:35:40;100471.75;;;26.99
67829;BMP280;54626;45.436;10.942;2023-07-29T07:38:17;100464.72;;;27.02
67829;BMP280;54626;45.436;10.942;2023-07-29T07:40:57;100466.63;;;27.17
67829;BMP280;54626;45.436;10.942;2023-07-29T07:43:31;100468.75;;;27.17
67829;BMP280;54626;45.436;10.942;2023-07-29T07:45:59;100465.91;;;27.17
67829;BMP280;54626;45.436;10.942;2023-07-29T07:48:31;100468.97;;;27.46
67829;BMP280;54626;45.436;10.942;2023-07-29T07:53:30;100469.78;;;27.74
67829;BMP280;54626;45.436;10.942;2023-07-29T07:55:57;100461.28;;;27.99
67829;BMP280;54626;45.436;10.942;2023-07-29T07:58:24;100464.34;;;28.07
67829;BMP280;54626;45.436;10.942;2023-07-29T08:04:15;100473.25;;;27.95
67829;BMP280;54626;45.436;10.942;2023-07-29T08:06:41;100476.09;;;28.21
67829;BMP280;54626;45.436;10.942;2023-07-29T08:09:08;100474.47;;;28.39
67829;BMP280;54626;45.436;10.942;2023-07-29T08:11:37;100477.00;;;28.54
67829;BMP280;54626;45.436;10.942;2023-07-29T08:14:30;100474.00;;;28.48
67829;BMP280;54626;45.436;10.942;2023-07-29T08:17:25;100475.69;;;28.59
67829;BMP280;54626;45.436;10.942;2023-07-29T08:20:06;100474.94;;;28.57
67829;BMP280;54626;45.436;10.942;2023-07-29T08:22:33;100472.44;;;28.71
67829;BMP280;54626;45.436;10.942;2023-07-29T08:24:59;100470.53;;;28.25
67829;BMP280;54626;45.436;10.942;2023-07-29T08:27:26;100465.69;;;28.04
67829;BMP280;54626;45.436;10.942;2023-07-29T08:29:53;100461.28;;;27.99
67829;BMP280;54626;45.436;10.942;2023-07-29T08:32:22;100471.78;;;27.69
67829;BMP280;54626;45.436;10.942;2023-07-29T08:34:48;100469.97;;;27.56
67829;BMP280;54626;45.436;10.942;2023-07-29T08:43:29;100465.84;;;27.38
67829;BMP280;54626;45.436;10.942;2023-07-29T08:48:42;100469.44;;;27.38
67829;BMP280;54626;45.436;10.942;2023-07-29T08:53:45;100461.22;;;27.48
67829;BMP280;54626;45.436;10.942;2023-07-29T08:56:40;100458.06;;;27.38
67829;BMP280;54626;45.436;10.942;2023-07-29T08:59:09;100456.53;;;27.82
67829;BMP280;54626;45.436;10.942;2023-07-29T09:01:39;100459.09;;;28.23
67829;BMP280;54626;45.436;10.942;2023-07-29T09:04:06;100463.97;;;28.45
67829;BMP280;54626;45.436;10.942;2023-07-29T09:06:33;100471.47;;;28.60
67829;BMP280;54626;45.436;10.942;2023-07-29T09:18:54;100451.81;;;29.01
67829;BMP280;54626;45.436;10.942;2023-07-29T09:23:50;100453.94;;;29.32
67829;BMP280;54626;45.436;10.942;2023-07-29T09:29:35;100456.13;;;29.02
67829;BMP280;54626;45.436;10.942;2023-07-29T09:32:20;100460.34;;;29.32
67829;BMP280;54626;45.436;10.942;2023-07-29T09:34:47;100456.09;;;29.33
67829;BMP280;54626;45.436;10.942;2023-07-29T09:37:32;100448.50;;;29.44
67829;BMP280;54626;45.436;10.942;2023-07-29T09:40:02;100459.97;;;29.15
67829;BMP280;54626;45.436;10.942;2023-07-29T09:42:31;100454.69;;;29.68
67829;BMP280;54626;45.436;10.942;2023-07-29T09:44:57;100459.75;;;29.71
67829;BMP280;54626;45.436;10.942;2023-07-29T09:47:30;100449.53;;;29.27
67829;BMP280;54626;45.436;10.942;2023-07-29T09:49:57;100449.34;;;29.50
67829;BMP280;54626;45.436;10.942;2023-07-29T09:52:23;100447.38;;;29.59
67829;BMP280;54626;45.436;10.942;2023-07-29T09:54:50;100442.97;;;29.89
67829;BMP280;54626;45.436;10.942;2023-07-29T09:57:18;100434.91;;;29.77
67829;BMP280;54626;45.436;10.942;2023-07-29T10:03:06;100432.63;;;29.70
67829;BMP280;54626;45.436;10.942;2023-07-29T10:05:34;100430.50;;;29.70
67829;BMP280;54626;45.436;10.942;2023-07-29T10:08:02;100424.16;;;29.39
67829;BMP280;54626;45.436;10.942;2023-07-29T10:10:29;100431.63;;;29.56
67829;BMP280;54626;45.436;10.942;2023-07-29T10:12:57;100438.63;;;29.86
67829;BMP280;54626;45.436;10.942;2023-07-29T10:15:25;100426.13;;;30.03
67829;BMP280;54626;45.436;10.942;2023-07-29T10:17:52;100427.44;;;29.96
67829;BMP280;54626;45.436;10.942;2023-07-29T10:20:19;100427.63;;;30.08
67829;BMP280;54626;45.436;10.942;2023-07-29T10:23:24;100423.28;;;30.05
67829;BMP280;54626;45.436;10.942;2023-07-29T10:25:57;100421.72;;;29.96
67829;BMP280;54626;45.436;10.942;2023-07-29T10:28:26;100423.13;;;29.95
67829;BMP280;54626;45.436;10.942;2023-07-29T10:31:21;100419.00;;;30.04
67829;BMP280;54626;45.436;10.942;2023-07-29T10:33:49;100423.97;;;30.42
67829;BMP280;54626;45.436;10.942;2023-07-29T10:36:45;100419.28;;;30.60
67829;BMP280;54626;45.436;10.942;2023-07-29T10:42:29;100408.91;;;30.40
67829;BMP280;54626;45.436;10.942;2023-07-29T10:44:56;100417.16;;;30.61
67829;BMP280;54626;45.436;10.942;2023-07-29T10:47:24;100412.03;;;31.03
67829;BMP280;54626;45.436;10.942;2023-07-29T10:49:56;100414.44;;;31.22
67829;BMP280;54626;45.436;10.942;2023-07-29T10:54:58;100403.69;;;30.26
67829;BMP280;54626;45.436;10.942;2023-07-29T10:57:34;100411.06;;;29.98
67829;BMP280;54626;45.436;10.942;2023-07-29T11:00:02;100408.16;;;29.59
67829;BMP280;54626;45.436;10.942;2023-07-29T11:02:31;100403.97;;;29.64
67829;BMP280;54626;45.436;10.942;2023-07-29T11:04:59;100413.34;;;30.08
67829;BMP280;54626;45.436;10.942;2023-07-29T11:07:26;100418.66;;;30.66
67829;BMP280;54626;45.436;10.942;2023-07-29T11:09:58;100414.81;;;30.97
67829;BMP280;54626;45.436;10.942;2023-07-29T11:15:26;100410.88;;;30.72
67829;BMP280;54626;45.436;10.942;2023-07-29T11:18:06;100404.16;;;30.11
67829;BMP280;54626;45.436;10.942;2023-07-29T11:20:35;100398.41;;;30.50
67829;BMP280;54626;45.436;10.942;2023-07-29T11:23:09;100398.97;;;30.88
67829;BMP280;54626;45.436;10.942;2023-07-29T11:25:35;100393.25;;;31.45
67829;BMP280;54626;45.436;10.942;2023-07-29T11:28:02;100394.22;;;31.67
67829;BMP280;54626;45.436;10.942;2023-07-29T11:30:33;100390.47;;;31.50
67829;BMP280;54626;45.436;10.942;2023-07-29T11:33:00;100385.72;;;31.75
67829;BMP280;54626;45.436;10.942;2023-07-29T11:35:27;100378.41;;;31.60
67829;BMP280;54626;45.436;10.942;2023-07-29T11:37:57;100384.31;;;31.78
67829;BMP280;54626;45.436;10.942;2023-07-29T11:40:24;100386.94;;;32.36
67829;BMP280;54626;45.436;10.942;2023-07-29T11:42:52;100388.94;;;32.16
67829;BMP280;54626;45.436;10.942;2023-07-29T11:45:20;100378.53;;;32.64
67829;BMP280;54626;45.436;10.942;2023-07-29T11:47:49;100377.72;;;32.48
67829;BMP280;54626;45.436;10.942;2023-07-29T11:50:16;100377.72;;;32.44
67829;BMP280;54626;45.436;10.942;2023-07-29T11:52:44;100377.81;;;32.62
67829;BMP280;54626;45.436;10.942;2023-07-29T11:55:14;100376.56;;;32.96
67829;BMP280;54626;45.436;10.942;2023-07-29T11:57:42;100374.44;;;33.05
67829;BMP280;54626;45.436;10.942;2023-07-29T12:00:10;100368.63;;;32.87
67829;BMP280;54626;45.436;10.942;2023-07-29T12:02:40;100376.63;;;33.20
67829;BMP280;54626;45.436;10.942;2023-07-29T12:05:09;100377.94;;;32.81
67829;BMP280;54626;45.436;10.942;2023-07-29T12:07:38;100366.75;;;32.17
67829;BMP280;54626;45.436;10.942;2023-07-29T12:10:06;100376.00;;;32.09
67829;BMP280;54626;45.436;10.942;2023-07-29T12:12:33;100367.78;;;31.72
67829;BMP280;54626;45.436;10.942;2023-07-29T12:14:59;100371.22;;;31.57
67829;BMP280;54626;45.436;10.942;2023-07-29T12:17:26;100366.50;;;31.87
67829;BMP280;54626;45.436;10.942;2023-07-29T12:19:54;100359.06;;;31.58
67829;BMP280;54626;45.436;10.942;2023-07-29T12:22:21;100369.06;;;31.55
67829;BMP280;54626;45.436;10.942;2023-07-29T12:24:51;100361.88;;;31.54
67829;BMP280;54626;45.436;10.942;2023-07-29T12:27:21;100365.66;;;31.73
67829;BMP280;54626;45.436;10.942;2023-07-29T12:29:51;100365.03;;;31.84
67829;BMP280;54626;45.436;10.942;2023-07-29T12:32:18;100358.09;;;32.09
67829;BMP280;54626;45.436;10.942;2023-07-29T12:34:44;100360.09;;;31.89
67829;BMP280;54626;45.436;10.942;2023-07-29T12:37:11;100358.44;;;31.68
67829;BMP280;54626;45.436;10.942;2023-07-29T12:39:40;100349.13;;;32.58
67829;BMP280;54626;45.436;10.942;2023-07-29T12:42:09;100345.09;;;33.16
67829;BMP280;54626;45.436;10.942;2023-07-29T12:44:37;100338.72;;;33.57
67829;BMP280;54626;45.436;10.942;2023-07-29T12:47:06;100341.47;;;33.08
67829;BMP280;54626;45.436;10.942;2023-07-29T12:49:33;100343.66;;;33.19
67829;BMP280;54626;45.436;10.942;2023-07-29T12:52:00;100339.25;;;32.88
67829;BMP280;54626;45.436;10.942;2023-07-29T12:54:26;100346.03;;;32.18
67829;BMP280;54626;45.436;10.942;2023-07-29T12:56:53;100343.75;;;32.05
67829;BMP280;54626;45.436;10.942;2023-07-29T12:59:20;100329.16;;;32.78
67829;BMP280;54626;45.436;10.942;2023-07-29T13:01:46;100314.31;;;33.62
67829;BMP280;54626;45.436;10.942;2023-07-29T13:04:13;100310.72;;;33.75
67829;BMP280;54626;45.436;10.942;2023-07-29T13:06:39;100306.41;;;33.80
67829;BMP280;54626;45.436;10.942;2023-07-29T13:09:06;100311.44;;;33.92
67829;BMP280;54626;45.436;10.942;2023-07-29T13:11:34;100312.88;;;34.03
67829;BMP280;54626;45.436;10.942;2023-07-29T13:14:01;100310.69;;;34.09
67829;BMP280;54626;45.436;10.942;2023-07-29T13:16:28;100299.00;;;34.66
67829;BMP280;54626;45.436;10.942;2023-07-29T13:18:56;100294.72;;;34.55
67829;BMP280;54626;45.436;10.942;2023-07-29T13:21:23;100304.25;;;33.23
67829;BMP280;54626;45.436;10.942;2023-07-29T13:23:50;100288.50;;;33.48
67829;BMP280;54626;45.436;10.942;2023-07-29T13:26:17;100304.28;;;33.61
67829;BMP280;54626;45.436;10.942;2023-07-29T13:28:44;100302.03;;;34.19
67829;BMP280;54626;45.436;10.942;2023-07-29T13:31:10;100299.03;;;34.56
67829;BMP280;54626;45.436;10.942;2023-07-29T13:33:37;100296.66;;;35.00
67829;BMP280;54626;45.436;10.942;2023-07-29T13:36:05;100296.75;;;34.88
67829;BMP280;54626;45.436;10.942;2023-07-29T13:38:32;100296.00;;;34.88
67829;BMP280;54626;45.436;10.942;2023-07-29T13:40:58;100300.34;;;34.85
67829;BMP280;54626;45.436;10.942;2023-07-29T13:43:25;100297.53;;;34.71
67829;BMP280;54626;45.436;10.942;2023-07-29T13:45:51;100299.69;;;34.75
67829;BMP280;54626;45.436;10.942;2023-07-29T13:48:21;100313.97;;;34.92
67829;BMP280;54626;45.436;10.942;2023-07-29T13:50:48;100300.22;;;35.05
67829;BMP280;54626;45.436;10.942;2023-07-29T13:53:14;100303.84;;;35.01
67829;BMP280;54626;45.436;10.942;2023-07-29T13:55:41;100303.75;;;35.17
67829;BMP280;54626;45.436;10.942;2023-07-29T13:58:08;100295.25;;;34.99
67829;BMP280;54626;45.436;10.942;2023-07-29T14:00:34;100288.88;;;34.75
67829;BMP280;54626;45.436;10.942;2023-07-29T14:03:01;100286.09;;;34.61
67829;BMP280;54626;45.436;10.942;2023-07-29T14:05:28;100292.56;;;34.58
67829;BMP280;54626;45.436;10.942;2023-07-29T14:07:55;100292.22;;;35.17
67829;BMP280;54626;45.436;10.942;2023-07-29T14:10:21;100282.97;;;35.05
67829;BMP280;54626;45.436;10.942;2023-07-29T14:12:48;100286.34;;;35.37
67829;BMP280;54626;45.436;10.942;2023-07-29T14:15:14;100288.25;;;35.64
67829;BMP280;54626;45.436;10.942;2023-07-29T14:17:41;100267.25;;;34.88
67829;BMP280;54626;45.436;10.942;2023-07-29T14:20:08;100276.16;;;34.23
67829;BMP280;54626;45.436;10.942;2023-07-29T14:22:35;100269.09;;;33.51
67829;BMP280;54626;45.436;10.942;2023-07-29T14:25:02;100269.09;;;33.41
67829;BMP280;54626;45.436;10.942;2023-07-29T14:27:29;100262.56;;;34.05
67829;BMP280;54626;45.436;10.942;2023-07-29T14:29:55;100262.88;;;34.95
67829;BMP280;54626;45.436;10.942;2023-07-29T14:32:22;100260.22;;;34.61
67829;BMP280;54626;45.436;10.942;2023-07-29T14:34:49;100257.09;;;34.99
67829;BMP280;54626;45.436;10.942;2023-07-29T14:37:16;100250.53;;;35.16
67829;BMP280;54626;45.436;10.942;2023-07-29T14:39:43;100250.16;;;34.56
67829;BMP280;54626;45.436;10.942;2023-07-29T14:42:10;100254.47;;;34.57
67829;BMP280;54626;45.436;10.942;2023-07-29T14:44:36;100244.16;;;34.98
67829;BMP280;54626;45.436;10.942;2023-07-29T14:47:03;100255.34;;;35.39
67829;BMP280;54626;45.436;10.942;2023-07-29T14:49:29;100242.09;;;34.85
67829;BMP280;54626;45.436;10.942;2023-07-29T14:51:56;100245.19;;;34.53
67829;BMP280;54626;45.436;10.942;2023-07-29T14:54:45;100242.75;;;34.91
67829;BMP280;54626;45.436;10.942;2023-07-29T14:57:11;100248.78;;;35.51
67829;BMP280;54626;45.436;10.942;2023-07-29T14:59:38;100245.13;;;35.56
67829;BMP280;54626;45.436;10.942;2023-07-29T15:02:18;100239.63;;;35.25
67829;BMP280;54626;45.436;10.942;2023-07-29T15:05:05;100236.88;;;35.11